sensor_id;sensor_type;location;lat;lon;timestamp;P1;durP1;ratioP1;P2;durP2;ratioP2
56239;SDS011;42154;51.992;5.896;2023-12-14T00:01:11;16.95;;;11.85;;
56239;SDS011;42154;51.992;5.896;2023-12-14T00:03:38;19.08;;;13.52;;
56239;SDS011;42154;51.992;5.896;2023-12-14T00:06:07;17.58;;;12.48;;
56239;SDS011;42154;51.992;5.896;2023-12-14T00:08:33;18.98;;;13.07;;
56239;SDS011;42154;51.992;5.896;2023-12-14T00:11:05;17.35;;;12.15;;
56239;SDS011;42154;51.992;5.896;2023-12-14T00:13:32;20.92;;;13.63;;
56239;SDS011;42154;51.992;5.896;2023-12-14T00:15:58;19.38;;;13.23;;
56239;SDS011;42154;51.992;5.896;2023-12-14T00:18:24;17.50;;;12.07;;
56239;SDS011;42154;51.992;5.896;2023-12-14T00:20:50;19.30;;;12.90;;
56239;SDS011;42154;51.992;5.896;2023-12-14T00:23:17;19.63;;;12.85;;
56239;SDS011;42154;51.992;5.896;2023-12-14T00:25:43;20.55;;;13.98;;
56239;SDS011;42154;51.992;5.896;2023-12-14T00:28:09;19.70;;;13.50;;
56239;SDS011;42154;51.992;5.896;2023-12-14T00:30:35;21.05;;;14.25;;
56239;SDS011;42154;51.992;5.896;2023-12-14T00:33:01;22.25;;;14.60;;
56239;SDS011;42154;51.992;5.896;2023-12-14T00:35:26;20.85;;;14.15;;
56239;SDS011;42154;51.992;5.896;2023-12-14T00:37:52;22.55;;;14.05;;
56239;SDS011;42154;51.992;5.896;2023-12-14T00:40:18;20.08;;;12.35;;
56239;SDS011;42154;51.992;5.896;2023-12-14T00:42:43;23.65;;;14.57;;
56239;SDS011;42154;51.992;5.896;2023-12-14T00:45:09;22.00;;;13.55;;
56239;SDS011;42154;51.992;5.896;2023-12-14T00:47:35;21.10;;;13.45;;
56239;SDS011;42154;51.992;5.896;2023-12-14T00:50:01;18.90;;;13.60;;
56239;SDS011;42154;51.992;5.896;2023-12-14T00:52:27;20.63;;;13.50;;
56239;SDS011;42154;51.992;5.896;2023-12-14T00:54:53;19.73;;;12.57;;
56239;SDS011;42154;51.992;5.896;2023-12-14T00:57:18;19.38;;;13.32;;
56239;SDS011;42154;51.992;5.896;2023-12-14T00:59:44;18.35;;;13.45;;
56239;SDS011;42154;51.992;5.896;2023-12-14T01:02:10;23.77;;;15.52;;
56239;SDS011;42154;51.992;5.896;2023-12-14T01:04:36;21.50;;;14.43;;
56239;SDS011;42154;51.992;5.896;2023-12-14T01:07:01;22.02;;;13.65;;
56239;SDS011;42154;51.992;5.896;2023-12-14T01:09:27;19.00;;;13.10;;
56239;SDS011;42154;51.992;5.896;2023-12-14T01:11:53;16.08;;;11.45;;
56239;SDS011;42154;51.992;5.896;2023-12-14T01:14:19;17.38;;;12.65;;
56239;SDS011;42154;51.992;5.896;2023-12-14T01:16:44;18.88;;;13.68;;
56239;SDS011;42154;51.992;5.896;2023-12-14T01:19:10;18.15;;;12.57;;
56239;SDS011;42154;51.992;5.896;2023-12-14T01:21:36;16.95;;;12.18;;
56239;SDS011;42154;51.992;5.896;2023-12-14T01:24:02;17.80;;;12.60;;
56239;SDS011;42154;51.992;5.896;2023-12-14T01:26:27;20.08;;;13.57;;
56239;SDS011;42154;51.992;5.896;2023-12-14T01:28:53;18.20;;;12.68;;
56239;SDS011;42154;51.992;5.896;2023-12-14T01:31:19;15.75;;;11.52;;
56239;SDS011;42154;51.992;5.896;2023-12-14T01:33:48;15.68;;;11.57;;
56239;SDS011;42154;51.992;5.896;2023-12-14T01:36:24;15.55;;;10.95;;
56239;SDS011;42154;51.992;5.896;2023-12-14T01:38:51;16.75;;;10.90;;
56239;SDS011;42154;51.992;5.896;2023-12-14T01:41:17;14.40;;;10.50;;
56239;SDS011;42154;51.992;5.896;2023-12-14T01:43:44;18.40;;;11.93;;
56239;SDS011;42154;51.992;5.896;2023-12-14T01:46:10;15.68;;;11.10;;
56239;SDS011;42154;51.992;5.896;2023-12-14T01:48:36;15.63;;;11.18;;
56239;SDS011;42154;51.992;5.896;2023-12-14T01:51:02;16.67;;;12.30;;
56239;SDS011;42154;51.992;5.896;2023-12-14T01:53:28;17.90;;;12.77;;
56239;SDS011;42154;51.992;5.896;2023-12-14T01:55:54;18.85;;;13.10;;
56239;SDS011;42154;51.992;5.896;2023-12-14T01:58:20;18.70;;;13.35;;
56239;SDS011;42154;51.992;5.896;2023-12-14T02:00:52;19.67;;;13.32;;
56239;SDS011;42154;51.992;5.896;2023-12-14T02:03:20;17.63;;;13.48;;
56239;SDS011;42154;51.992;5.896;2023-12-14T02:05:45;18.88;;;12.82;;
56239;SDS011;42154;51.992;5.896;2023-12-14T02:08:11;20.13;;;15.02;;
56239;SDS011;42154;51.992;5.896;2023-12-14T02:10:37;18.67;;;14.07;;
56239;SDS011;42154;51.992;5.896;2023-12-14T02:13:02;17.75;;;13.20;;
56239;SDS011;42154;51.992;5.896;2023-12-14T02:15:28;18.40;;;13.75;;
56239;SDS011;42154;51.992;5.896;2023-12-14T02:17:54;17.15;;;12.20;;
56239;SDS011;42154;51.992;5.896;2023-12-14T02:20:20;14.95;;;11.50;;
56239;SDS011;42154;51.992;5.896;2023-12-14T02:22:55;15.50;;;11.55;;
56239;SDS011;42154;51.992;5.896;2023-12-14T02:25:22;16.40;;;12.35;;
56239;SDS011;42154;51.992;5.896;2023-12-14T02:27:49;17.92;;;12.93;;
56239;SDS011;42154;51.992;5.896;2023-12-14T02:30:16;15.80;;;11.57;;
56239;SDS011;42154;51.992;5.896;2023-12-14T02:32:42;19.63;;;14.27;;
56239;SDS011;42154;51.992;5.896;2023-12-14T02:35:09;17.42;;;12.30;;
56239;SDS011;42154;51.992;5.896;2023-12-14T02:37:35;16.70;;;12.02;;
56239;SDS011;42154;51.992;5.896;2023-12-14T02:40:08;17.67;;;12.45;;
56239;SDS011;42154;51.992;5.896;2023-12-14T02:42:34;16.55;;;11.50;;
56239;SDS011;42154;51.992;5.896;2023-12-14T02:45:01;19.40;;;13.13;;
56239;SDS011;42154;51.992;5.896;2023-12-14T02:47:27;16.73;;;12.20;;
56239;SDS011;42154;51.992;5.896;2023-12-14T02:49:54;17.73;;;12.25;;
56239;SDS011;42154;51.992;5.896;2023-12-14T02:52:20;18.05;;;12.65;;
56239;SDS011;42154;51.992;5.896;2023-12-14T02:54:45;16.85;;;11.60;;
56239;SDS011;42154;51.992;5.896;2023-12-14T02:57:11;16.27;;;11.43;;
56239;SDS011;42154;51.992;5.896;2023-12-14T02:59:37;17.63;;;11.93;;
56239;SDS011;42154;51.992;5.896;2023-12-14T03:02:03;16.75;;;12.23;;
56239;SDS011;42154;51.992;5.896;2023-12-14T03:04:28;15.82;;;12.32;;
56239;SDS011;42154;51.992;5.896;2023-12-14T03:06:54;17.45;;;11.50;;
56239;SDS011;42154;51.992;5.896;2023-12-14T03:09:21;17.58;;;11.32;;
56239;SDS011;42154;51.992;5.896;2023-12-14T03:11:47;16.35;;;12.43;;
56239;SDS011;42154;51.992;5.896;2023-12-14T03:14:14;18.02;;;12.23;;
56239;SDS011;42154;51.992;5.896;2023-12-14T03:16:39;16.17;;;12.45;;
56239;SDS011;42154;51.992;5.896;2023-12-14T03:19:05;15.68;;;11.98;;
56239;SDS011;42154;51.992;5.896;2023-12-14T03:21:31;14.77;;;11.27;;
56239;SDS011;42154;51.992;5.896;2023-12-14T03:23:57;15.32;;;12.13;;
56239;SDS011;42154;51.992;5.896;2023-12-14T03:26:22;15.43;;;11.60;;
56239;SDS011;42154;51.992;5.896;2023-12-14T03:28:48;13.48;;;10.82;;
56239;SDS011;42154;51.992;5.896;2023-12-14T03:31:14;12.52;;;9.85;;
56239;SDS011;42154;51.992;5.896;2023-12-14T03:33:40;13.75;;;10.55;;
56239;SDS011;42154;51.992;5.896;2023-12-14T03:36:06;14.07;;;10.60;;
56239;SDS011;42154;51.992;5.896;2023-12-14T03:38:32;12.45;;;10.20;;
56239;SDS011;42154;51.992;5.896;2023-12-14T03:40:58;12.27;;;9.75;;
56239;SDS011;42154;51.992;5.896;2023-12-14T03:43:24;14.63;;;11.25;;
56239;SDS011;42154;51.992;5.896;2023-12-14T03:45:50;14.05;;;11.23;;
56239;SDS011;42154;51.992;5.896;2023-12-14T03:48:15;13.95;;;10.90;;
56239;SDS011;42154;51.992;5.896;2023-12-14T03:50:41;12.95;;;11.13;;
56239;SDS011;42154;51.992;5.896;2023-12-14T03:53:07;12.88;;;10.05;;
56239;SDS011;42154;51.992;5.896;2023-12-14T03:55:33;14.25;;;10.85;;
56239;SDS011;42154;51.992;5.896;2023-12-14T03:57:59;14.48;;;11.32;;
56239;SDS011;42154;51.992;5.896;2023-12-14T04:00:24;14.40;;;11.32;;
56239;SDS011;42154;51.992;5.896;2023-12-14T04:02:50;15.75;;;11.02;;
56239;SDS011;42154;51.992;5.896;2023-12-14T04:05:16;13.23;;;10.48;;
56239;SDS011;42154;51.992;5.896;2023-12-14T04:07:42;14.77;;;11.75;;
56239;SDS011;42154;51.992;5.896;2023-12-14T04:10:09;14.98;;;11.30;;
56239;SDS011;42154;51.992;5.896;2023-12-14T04:12:36;15.90;;;11.82;;
56239;SDS011;42154;51.992;5.896;2023-12-14T04:15:03;16.15;;;12.38;;
56239;SDS011;42154;51.992;5.896;2023-12-14T04:17:30;13.82;;;11.40;;
56239;SDS011;42154;51.992;5.896;2023-12-14T04:19:56;14.07;;;11.02;;
56239;SDS011;42154;51.992;5.896;2023-12-14T04:22:22;14.90;;;11.65;;
56239;SDS011;42154;51.992;5.896;2023-12-14T04:24:47;17.85;;;13.48;;
56239;SDS011;42154;51.992;5.896;2023-12-14T04:27:14;15.52;;;11.73;;
56239;SDS011;42154;51.992;5.896;2023-12-14T04:29:40;13.88;;;10.43;;
56239;SDS011;42154;51.992;5.896;2023-12-14T04:32:06;12.27;;;9.90;;
56239;SDS011;42154;51.992;5.896;2023-12-14T04:34:32;14.07;;;10.07;;
56239;SDS011;42154;51.992;5.896;2023-12-14T04:36:57;12.10;;;9.85;;
56239;SDS011;42154;51.992;5.896;2023-12-14T04:39:23;13.98;;;10.63;;
56239;SDS011;42154;51.992;5.896;2023-12-14T04:41:50;14.38;;;11.20;;
56239;SDS011;42154;51.992;5.896;2023-12-14T04:44:17;14.07;;;11.32;;
56239;SDS011;42154;51.992;5.896;2023-12-14T04:46:43;12.65;;;10.50;;
56239;SDS011;42154;51.992;5.896;2023-12-14T04:49:09;13.88;;;10.63;;
56239;SDS011;42154;51.992;5.896;2023-12-14T04:51:35;14.65;;;11.18;;
56239;SDS011;42154;51.992;5.896;2023-12-14T04:54:00;13.20;;;10.52;;
56239;SDS011;42154;51.992;5.896;2023-12-14T04:56:26;15.10;;;10.82;;
56239;SDS011;42154;51.992;5.896;2023-12-14T04:58:52;13.18;;;10.40;;
56239;SDS011;42154;51.992;5.896;2023-12-14T05:01:17;14.40;;;10.90;;
56239;SDS011;42154;51.992;5.896;2023-12-14T05:03:43;14.98;;;11.23;;
56239;SDS011;42154;51.992;5.896;2023-12-14T05:06:09;18.15;;;13.38;;
56239;SDS011;42154;51.992;5.896;2023-12-14T05:08:34;16.67;;;12.63;;
56239;SDS011;42154;51.992;5.896;2023-12-14T05:11:00;15.13;;;11.48;;
56239;SDS011;42154;51.992;5.896;2023-12-14T05:13:26;17.55;;;13.20;;
56239;SDS011;42154;51.992;5.896;2023-12-14T05:15:52;14.55;;;11.73;;
56239;SDS011;42154;51.992;5.896;2023-12-14T05:18:18;16.02;;;11.75;;
56239;SDS011;42154;51.992;5.896;2023-12-14T05:20:44;16.30;;;12.38;;
56239;SDS011;42154;51.992;5.896;2023-12-14T05:23:11;14.68;;;11.70;;
56239;SDS011;42154;51.992;5.896;2023-12-14T05:25:37;17.55;;;12.18;;
56239;SDS011;42154;51.992;5.896;2023-12-14T05:28:03;16.40;;;10.75;;
56239;SDS011;42154;51.992;5.896;2023-12-14T05:30:29;16.33;;;11.20;;
56239;SDS011;42154;51.992;5.896;2023-12-14T05:32:55;14.10;;;10.43;;
56239;SDS011;42154;51.992;5.896;2023-12-14T05:35:21;15.38;;;10.90;;
56239;SDS011;42154;51.992;5.896;2023-12-14T05:37:47;13.25;;;10.63;;
56239;SDS011;42154;51.992;5.896;2023-12-14T05:40:13;12.27;;;9.93;;
56239;SDS011;42154;51.992;5.896;2023-12-14T05:42:39;12.63;;;9.82;;
56239;SDS011;42154;51.992;5.896;2023-12-14T05:45:05;13.05;;;10.32;;
56239;SDS011;42154;51.992;5.896;2023-12-14T05:47:31;12.15;;;9.15;;
56239;SDS011;42154;51.992;5.896;2023-12-14T05:49:59;12.50;;;9.32;;
56239;SDS011;42154;51.992;5.896;2023-12-14T05:52:28;14.93;;;10.88;;
56239;SDS011;42154;51.992;5.896;2023-12-14T05:54:54;14.07;;;9.45;;
56239;SDS011;42154;51.992;5.896;2023-12-14T05:57:19;14.80;;;10.20;;
56239;SDS011;42154;51.992;5.896;2023-12-14T05:59:45;14.70;;;9.93;;
56239;SDS011;42154;51.992;5.896;2023-12-14T06:02:11;14.80;;;10.77;;
56239;SDS011;42154;51.992;5.896;2023-12-14T06:04:36;13.95;;;10.32;;
56239;SDS011;42154;51.992;5.896;2023-12-14T06:07:02;12.10;;;9.73;;
56239;SDS011;42154;51.992;5.896;2023-12-14T06:09:28;12.75;;;9.93;;
56239;SDS011;42154;51.992;5.896;2023-12-14T06:12:00;12.85;;;9.70;;
56239;SDS011;42154;51.992;5.896;2023-12-14T06:14:27;12.80;;;9.57;;
56239;SDS011;42154;51.992;5.896;2023-12-14T06:16:53;12.07;;;8.95;;
56239;SDS011;42154;51.992;5.896;2023-12-14T06:19:19;13.52;;;9.43;;
56239;SDS011;42154;51.992;5.896;2023-12-14T06:21:45;13.00;;;9.57;;
56239;SDS011;42154;51.992;5.896;2023-12-14T06:24:11;14.57;;;9.93;;
56239;SDS011;42154;51.992;5.896;2023-12-14T06:26:43;11.77;;;9.10;;
56239;SDS011;42154;51.992;5.896;2023-12-14T06:29:09;10.75;;;8.07;;
56239;SDS011;42154;51.992;5.896;2023-12-14T06:31:36;12.88;;;8.48;;
56239;SDS011;42154;51.992;5.896;2023-12-14T06:34:02;11.02;;;7.90;;
56239;SDS011;42154;51.992;5.896;2023-12-14T06:36:32;11.73;;;8.27;;
56239;SDS011;42154;51.992;5.896;2023-12-14T06:38:59;8.77;;;6.85;;
56239;SDS011;42154;51.992;5.896;2023-12-14T06:41:26;10.73;;;7.70;;
56239;SDS011;42154;51.992;5.896;2023-12-14T06:43:53;9.77;;;6.93;;
56239;SDS011;42154;51.992;5.896;2023-12-14T06:46:19;10.38;;;7.28;;
56239;SDS011;42154;51.992;5.896;2023-12-14T06:48:46;10.10;;;6.43;;
56239;SDS011;42154;51.992;5.896;2023-12-14T06:51:12;11.40;;;7.63;;
56239;SDS011;42154;51.992;5.896;2023-12-14T06:53:41;9.77;;;6.90;;
56239;SDS011;42154;51.992;5.896;2023-12-14T06:56:08;8.73;;;6.18;;
56239;SDS011;42154;51.992;5.896;2023-12-14T06:58:36;11.20;;;7.45;;
56239;SDS011;42154;51.992;5.896;2023-12-14T07:01:06;9.07;;;6.68;;
56239;SDS011;42154;51.992;5.896;2023-12-14T07:03:32;9.57;;;6.63;;
56239;SDS011;42154;51.992;5.896;2023-12-14T07:05:58;8.65;;;6.13;;
56239;SDS011;42154;51.992;5.896;2023-12-14T07:08:24;8.10;;;5.85;;
56239;SDS011;42154;51.992;5.896;2023-12-14T07:10:50;7.53;;;5.80;;
56239;SDS011;42154;51.992;5.896;2023-12-14T07:13:15;7.45;;;5.90;;
56239;SDS011;42154;51.992;5.896;2023-12-14T07:15:41;8.57;;;6.25;;
56239;SDS011;42154;51.992;5.896;2023-12-14T07:18:07;8.75;;;6.13;;
56239;SDS011;42154;51.992;5.896;2023-12-14T07:20:33;9.35;;;6.97;;
56239;SDS011;42154;51.992;5.896;2023-12-14T07:22:59;8.45;;;7.00;;
56239;SDS011;42154;51.992;5.896;2023-12-14T07:25:24;10.55;;;7.28;;
56239;SDS011;42154;51.992;5.896;2023-12-14T07:27:50;13.15;;;6.82;;
56239;SDS011;42154;51.992;5.896;2023-12-14T07:30:16;12.60;;;7.70;;
56239;SDS011;42154;51.992;5.896;2023-12-14T07:32:42;9.02;;;6.88;;
56239;SDS011;42154;51.992;5.896;2023-12-14T07:35:08;10.07;;;7.03;;
56239;SDS011;42154;51.992;5.896;2023-12-14T07:37:35;10.95;;;7.18;;
56239;SDS011;42154;51.992;5.896;2023-12-14T07:40:01;9.68;;;7.25;;
56239;SDS011;42154;51.992;5.896;2023-12-14T07:42:27;9.02;;;6.22;;
56239;SDS011;42154;51.992;5.896;2023-12-14T07:44:53;8.90;;;7.15;;
56239;SDS011;42154;51.992;5.896;2023-12-14T07:47:19;9.90;;;7.32;;
56239;SDS011;42154;51.992;5.896;2023-12-14T07:49:45;9.30;;;6.28;;
56239;SDS011;42154;51.992;5.896;2023-12-14T07:52:11;8.18;;;6.00;;
56239;SDS011;42154;51.992;5.896;2023-12-14T07:54:38;7.50;;;5.93;;
56239;SDS011;42154;51.992;5.896;2023-12-14T07:57:05;8.13;;;6.20;;
56239;SDS011;42154;51.992;5.896;2023-12-14T07:59:30;7.47;;;5.70;;
56239;SDS011;42154;51.992;5.896;2023-12-14T08:01:56;8.45;;;6.35;;
56239;SDS011;42154;51.992;5.896;2023-12-14T08:04:22;6.88;;;5.47;;
56239;SDS011;42154;51.992;5.896;2023-12-14T08:06:48;8.05;;;6.40;;
56239;SDS011;42154;51.992;5.896;2023-12-14T08:09:14;8.23;;;6.20;;
56239;SDS011;42154;51.992;5.896;2023-12-14T08:11:40;6.85;;;5.50;;
56239;SDS011;42154;51.992;5.896;2023-12-14T08:14:05;7.72;;;5.50;;
56239;SDS011;42154;51.992;5.896;2023-12-14T08:16:31;7.50;;;5.57;;
56239;SDS011;42154;51.992;5.896;2023-12-14T08:18:57;6.70;;;5.55;;
56239;SDS011;42154;51.992;5.896;2023-12-14T08:21:23;6.75;;;5.22;;
56239;SDS011;42154;51.992;5.896;2023-12-14T08:23:48;6.05;;;4.88;;
56239;SDS011;42154;51.992;5.896;2023-12-14T08:26:14;5.70;;;4.55;;
56239;SDS011;42154;51.992;5.896;2023-12-14T08:28:40;6.13;;;4.75;;
56239;SDS011;42154;51.992;5.896;2023-12-14T08:31:06;6.72;;;4.65;;
56239;SDS011;42154;51.992;5.896;2023-12-14T08:33:33;5.93;;;4.90;;
56239;SDS011;42154;51.992;5.896;2023-12-14T08:35:59;5.07;;;4.30;;
56239;SDS011;42154;51.992;5.896;2023-12-14T08:38:24;6.05;;;4.50;;
56239;SDS011;42154;51.992;5.896;2023-12-14T08:40:50;6.40;;;4.75;;
56239;SDS011;42154;51.992;5.896;2023-12-14T08:43:16;6.53;;;4.32;;
56239;SDS011;42154;51.992;5.896;2023-12-14T08:45:42;8.10;;;6.43;;
56239;SDS011;42154;51.992;5.896;2023-12-14T08:48:08;7.88;;;5.95;;
56239;SDS011;42154;51.992;5.896;2023-12-14T08:50:33;7.20;;;5.28;;
56239;SDS011;42154;51.992;5.896;2023-12-14T08:52:59;6.40;;;4.95;;
56239;SDS011;42154;51.992;5.896;2023-12-14T08:55:25;5.80;;;4.75;;
56239;SDS011;42154;51.992;5.896;2023-12-14T08:57:51;5.32;;;4.38;;
56239;SDS011;42154;51.992;5.896;2023-12-14T09:00:17;5.03;;;4.25;;
56239;SDS011;42154;51.992;5.896;2023-12-14T09:02:46;6.00;;;4.60;;
56239;SDS011;42154;51.992;5.896;2023-12-14T09:05:12;6.25;;;4.95;;
56239;SDS011;42154;51.992;5.896;2023-12-14T09:07:39;8.27;;;6.15;;
56239;SDS011;42154;51.992;5.896;2023-12-14T09:10:05;7.05;;;5.50;;
56239;SDS011;42154;51.992;5.896;2023-12-14T09:12:32;7.88;;;5.93;;
56239;SDS011;42154;51.992;5.896;2023-12-14T09:14:59;7.70;;;5.93;;
56239;SDS011;42154;51.992;5.896;2023-12-14T09:17:25;6.32;;;5.00;;
56239;SDS011;42154;51.992;5.896;2023-12-14T09:19:51;8.00;;;5.28;;
56239;SDS011;42154;51.992;5.896;2023-12-14T09:22:17;8.85;;;5.63;;
56239;SDS011;42154;51.992;5.896;2023-12-14T09:24:43;6.05;;;4.97;;
56239;SDS011;42154;51.992;5.896;2023-12-14T09:27:09;6.38;;;4.75;;
56239;SDS011;42154;51.992;5.896;2023-12-14T09:29:34;6.00;;;4.75;;
56239;SDS011;42154;51.992;5.896;2023-12-14T09:32:00;7.57;;;5.80;;
56239;SDS011;42154;51.992;5.896;2023-12-14T09:34:26;6.55;;;5.07;;
56239;SDS011;42154;51.992;5.896;2023-12-14T09:36:51;7.38;;;5.47;;
56239;SDS011;42154;51.992;5.896;2023-12-14T09:39:17;7.50;;;5.93;;
56239;SDS011;42154;51.992;5.896;2023-12-14T09:41:44;11.95;;;6.32;;
56239;SDS011;42154;51.992;5.896;2023-12-14T09:44:11;39.42;;;9.25;;
56239;SDS011;42154;51.992;5.896;2023-12-14T09:46:37;14.57;;;7.38;;
56239;SDS011;42154;51.992;5.896;2023-12-14T09:49:04;11.75;;;6.43;;
56239;SDS011;42154;51.992;5.896;2023-12-14T09:51:30;10.35;;;6.43;;
56239;SDS011;42154;51.992;5.896;2023-12-14T09:53:56;10.00;;;5.88;;
56239;SDS011;42154;51.992;5.896;2023-12-14T09:56:25;10.73;;;6.78;;
56239;SDS011;42154;51.992;5.896;2023-12-14T09:58:51;8.85;;;6.53;;
56239;SDS011;42154;51.992;5.896;2023-12-14T10:01:26;8.50;;;5.60;;
56239;SDS011;42154;51.992;5.896;2023-12-14T10:04:08;9.52;;;5.97;;
56239;SDS011;42154;51.992;5.896;2023-12-14T10:06:35;8.05;;;5.70;;
56239;SDS011;42154;51.992;5.896;2023-12-14T10:09:02;7.22;;;5.80;;
56239;SDS011;42154;51.992;5.896;2023-12-14T10:11:29;8.10;;;6.18;;
56239;SDS011;42154;51.992;5.896;2023-12-14T10:13:55;10.15;;;6.60;;
56239;SDS011;42154;51.992;5.896;2023-12-14T10:16:33;9.38;;;7.32;;
56239;SDS011;42154;51.992;5.896;2023-12-14T10:18:59;10.13;;;7.00;;
56239;SDS011;42154;51.992;5.896;2023-12-14T10:21:26;10.10;;;7.25;;
56239;SDS011;42154;51.992;5.896;2023-12-14T10:23:54;9.20;;;7.22;;
56239;SDS011;42154;51.992;5.896;2023-12-14T10:26:24;9.52;;;7.47;;
56239;SDS011;42154;51.992;5.896;2023-12-14T10:28:51;9.82;;;6.88;;
56239;SDS011;42154;51.992;5.896;2023-12-14T10:31:18;9.43;;;7.40;;
56239;SDS011;42154;51.992;5.896;2023-12-14T10:33:47;9.98;;;7.18;;
56239;SDS011;42154;51.992;5.896;2023-12-14T10:36:13;9.68;;;6.68;;
56239;SDS011;42154;51.992;5.896;2023-12-14T10:38:43;8.77;;;6.72;;
56239;SDS011;42154;51.992;5.896;2023-12-14T10:41:11;8.27;;;6.22;;
56239;SDS011;42154;51.992;5.896;2023-12-14T10:43:38;11.32;;;7.25;;
56239;SDS011;42154;51.992;5.896;2023-12-14T10:46:06;8.95;;;7.25;;
56239;SDS011;42154;51.992;5.896;2023-12-14T10:48:34;12.07;;;7.90;;
56239;SDS011;42154;51.992;5.896;2023-12-14T10:51:04;11.05;;;7.80;;
56239;SDS011;42154;51.992;5.896;2023-12-14T10:53:32;10.00;;;7.65;;
56239;SDS011;42154;51.992;5.896;2023-12-14T10:55:59;9.88;;;7.20;;
56239;SDS011;42154;51.992;5.896;2023-12-14T10:58:29;11.10;;;7.40;;
56239;SDS011;42154;51.992;5.896;2023-12-14T11:01:13;7.43;;;6.32;;
56239;SDS011;42154;51.992;5.896;2023-12-14T11:03:40;8.77;;;6.78;;
56239;SDS011;42154;51.992;5.896;2023-12-14T11:08:58;11.85;;;7.97;;
56239;SDS011;42154;51.992;5.896;2023-12-14T11:14:18;9.73;;;7.28;;
56239;SDS011;42154;51.992;5.896;2023-12-14T11:16:47;8.18;;;6.28;;
56239;SDS011;42154;51.992;5.896;2023-12-14T11:24:22;14.55;;;9.05;;
56239;SDS011;42154;51.992;5.896;2023-12-14T11:26:51;12.07;;;8.45;;
56239;SDS011;42154;51.992;5.896;2023-12-14T11:29:17;14.82;;;9.75;;
56239;SDS011;42154;51.992;5.896;2023-12-14T11:31:44;12.25;;;8.38;;
56239;SDS011;42154;51.992;5.896;2023-12-14T11:34:11;11.48;;;8.20;;
56239;SDS011;42154;51.992;5.896;2023-12-14T11:36:37;9.27;;;6.53;;
56239;SDS011;42154;51.992;5.896;2023-12-14T11:39:09;12.68;;;8.18;;
56239;SDS011;42154;51.992;5.896;2023-12-14T11:41:36;11.50;;;8.23;;
56239;SDS011;42154;51.992;5.896;2023-12-14T11:44:03;8.93;;;6.97;;
56239;SDS011;42154;51.992;5.896;2023-12-14T11:46:30;13.18;;;8.23;;
56239;SDS011;42154;51.992;5.896;2023-12-14T11:48:57;12.60;;;8.77;;
56239;SDS011;42154;51.992;5.896;2023-12-14T11:51:23;11.82;;;9.70;;
56239;SDS011;42154;51.992;5.896;2023-12-14T11:53:51;12.18;;;8.00;;
56239;SDS011;42154;51.992;5.896;2023-12-14T11:56:17;12.60;;;8.68;;
56239;SDS011;42154;51.992;5.896;2023-12-14T11:58:44;12.23;;;7.35;;
56239;SDS011;42154;51.992;5.896;2023-12-14T12:01:17;11.85;;;8.52;;
56239;SDS011;42154;51.992;5.896;2023-12-14T12:03:44;13.63;;;8.18;;
56239;SDS011;42154;51.992;5.896;2023-12-14T12:06:26;14.20;;;8.80;;
56239;SDS011;42154;51.992;5.896;2023-12-14T12:08:58;12.02;;;8.88;;
56239;SDS011;42154;51.992;5.896;2023-12-14T12:11:24;12.60;;;8.73;;
56239;SDS011;42154;51.992;5.896;2023-12-14T12:13:55;12.88;;;8.55;;
56239;SDS011;42154;51.992;5.896;2023-12-14T12:16:22;11.10;;;7.85;;
56239;SDS011;42154;51.992;5.896;2023-12-14T12:18:48;8.95;;;6.82;;
56239;SDS011;42154;51.992;5.896;2023-12-14T12:21:15;9.75;;;6.57;;
56239;SDS011;42154;51.992;5.896;2023-12-14T12:23:41;8.20;;;6.47;;
56239;SDS011;42154;51.992;5.896;2023-12-14T12:26:07;8.77;;;6.65;;
56239;SDS011;42154;51.992;5.896;2023-12-14T12:28:34;9.65;;;7.57;;
56239;SDS011;42154;51.992;5.896;2023-12-14T12:30:59;9.00;;;7.22;;
56239;SDS011;42154;51.992;5.896;2023-12-14T12:33:25;10.15;;;7.38;;
56239;SDS011;42154;51.992;5.896;2023-12-14T12:35:52;9.95;;;6.75;;
56239;SDS011;42154;51.992;5.896;2023-12-14T12:38:19;28.48;;;9.75;;
56239;SDS011;42154;51.992;5.896;2023-12-14T12:40:45;14.57;;;8.90;;
56239;SDS011;42154;51.992;5.896;2023-12-14T12:43:10;11.50;;;8.10;;
56239;SDS011;42154;51.992;5.896;2023-12-14T12:45:37;10.93;;;7.63;;
56239;SDS011;42154;51.992;5.896;2023-12-14T12:48:03;10.20;;;7.30;;
56239;SDS011;42154;51.992;5.896;2023-12-14T12:50:31;10.57;;;7.50;;
56239;SDS011;42154;51.992;5.896;2023-12-14T12:52:56;8.65;;;6.10;;
56239;SDS011;42154;51.992;5.896;2023-12-14T12:55:23;9.00;;;6.93;;
56239;SDS011;42154;51.992;5.896;2023-12-14T12:57:48;9.45;;;7.18;;
56239;SDS011;42154;51.992;5.896;2023-12-14T13:00:14;9.48;;;6.22;;
56239;SDS011;42154;51.992;5.896;2023-12-14T13:02:41;11.13;;;8.25;;
56239;SDS011;42154;51.992;5.896;2023-12-14T13:05:07;9.80;;;7.63;;
56239;SDS011;42154;51.992;5.896;2023-12-14T13:07:37;10.00;;;7.32;;
56239;SDS011;42154;51.992;5.896;2023-12-14T13:10:03;9.50;;;7.22;;
56239;SDS011;42154;51.992;5.896;2023-12-14T13:12:31;8.93;;;6.78;;
56239;SDS011;42154;51.992;5.896;2023-12-14T13:14:59;8.73;;;6.10;;
56239;SDS011;42154;51.992;5.896;2023-12-14T13:17:25;8.48;;;6.57;;
56239;SDS011;42154;51.992;5.896;2023-12-14T13:19:51;8.60;;;6.25;;
56239;SDS011;42154;51.992;5.896;2023-12-14T13:22:17;8.68;;;6.10;;
56239;SDS011;42154;51.992;5.896;2023-12-14T13:24:44;9.05;;;6.85;;
56239;SDS011;42154;51.992;5.896;2023-12-14T13:27:10;9.13;;;6.35;;
56239;SDS011;42154;51.992;5.896;2023-12-14T13:29:36;9.48;;;6.30;;
56239;SDS011;42154;51.992;5.896;2023-12-14T13:32:01;7.13;;;5.57;;
56239;SDS011;42154;51.992;5.896;2023-12-14T13:34:27;7.85;;;6.35;;
56239;SDS011;42154;51.992;5.896;2023-12-14T13:36:54;9.30;;;6.57;;
56239;SDS011;42154;51.992;5.896;2023-12-14T13:39:20;8.73;;;6.40;;
56239;SDS011;42154;51.992;5.896;2023-12-14T13:41:45;9.32;;;7.38;;
56239;SDS011;42154;51.992;5.896;2023-12-14T13:44:11;8.23;;;6.07;;
56239;SDS011;42154;51.992;5.896;2023-12-14T13:46:37;7.57;;;6.57;;
56239;SDS011;42154;51.992;5.896;2023-12-14T13:49:03;9.55;;;6.20;;
56239;SDS011;42154;51.992;5.896;2023-12-14T13:51:28;8.00;;;6.55;;
56239;SDS011;42154;51.992;5.896;2023-12-14T13:53:54;9.18;;;6.85;;
56239;SDS011;42154;51.992;5.896;2023-12-14T13:56:20;8.95;;;5.40;;
56239;SDS011;42154;51.992;5.896;2023-12-14T13:58:46;8.52;;;5.85;;
56239;SDS011;42154;51.992;5.896;2023-12-14T14:01:12;8.63;;;6.20;;
56239;SDS011;42154;51.992;5.896;2023-12-14T14:03:40;6.57;;;5.15;;
56239;SDS011;42154;51.992;5.896;2023-12-14T14:06:07;6.05;;;5.07;;
56239;SDS011;42154;51.992;5.896;2023-12-14T14:08:34;9.07;;;5.60;;
56239;SDS011;42154;51.992;5.896;2023-12-14T14:11:00;7.45;;;5.65;;
56239;SDS011;42154;51.992;5.896;2023-12-14T14:13:28;8.18;;;5.57;;
56239;SDS011;42154;51.992;5.896;2023-12-14T14:15:54;7.63;;;5.88;;
56239;SDS011;42154;51.992;5.896;2023-12-14T14:18:20;7.53;;;5.25;;
56239;SDS011;42154;51.992;5.896;2023-12-14T14:20:46;8.55;;;6.78;;
56239;SDS011;42154;51.992;5.896;2023-12-14T14:23:12;9.27;;;6.35;;
56239;SDS011;42154;51.992;5.896;2023-12-14T14:25:38;9.25;;;6.00;;
56239;SDS011;42154;51.992;5.896;2023-12-14T14:28:03;8.18;;;5.95;;
56239;SDS011;42154;51.992;5.896;2023-12-14T14:30:30;8.10;;;5.93;;
56239;SDS011;42154;51.992;5.896;2023-12-14T14:32:56;8.27;;;5.97;;
56239;SDS011;42154;51.992;5.896;2023-12-14T14:35:22;8.05;;;6.30;;
56239;SDS011;42154;51.992;5.896;2023-12-14T14:37:49;7.97;;;5.90;;
56239;SDS011;42154;51.992;5.896;2023-12-14T14:40:15;6.55;;;5.40;;